Aviation Digital Data Service (ADDS)

Output produced by METARs form (0112 UTC 17 July 2019)
found at http://www.aviationweather.gov/metar/data/
 
EDAC 170050Z AUTO 22006KT 9999 // FEW026/// OVC034/// 14/11 Q1016
TAF EDAC 161700Z 1618/1703 29007KT 9999 FEW040 
     BECMG 1620/1623 VRB02KT
       
EDMA 170050Z AUTO 11002KT 9999 // NCD 10/09 Q1016
TAF EDMA 161700Z 1618/1703 32005KT CAVOK 
     BECMG 1618/1620 VRB02KT
       
EDVE 161950Z 27007KT 9999 FEW018 SCT038 15/12 Q1016
TAF EDVE 161700Z 1618/1621 30009KT 9999 BKN020 
     BECMG 1618/1620 29004KT
       
EDDW 170050Z 31005KT 9999 FEW012 OVC019 14/13 Q1016
TAF EDDW 162300Z 1700/1724 30006KT 9999 BKN020 
     TEMPO 1700/1708 BKN012 
     PROB30 
     TEMPO 1701/1706 4000 BR BKN007 
     BECMG 1717/1720 VRB03KT
       
ETSB 170020Z AUTO 01003KT 7000 // ////// 12/09 Q1017 ///
TAF ETSB 161349Z 1614/1623 VRB03KT 9999 NSW FEW040 SCT300 CANCEL 1600 BY ETGL
       
ETHB 170020Z 34003KT 9999 FEW013 BKN023 15/13 Q1017 WHT
TAF ETHB 161400Z 1614/1623 31012KT 9999 NSW SCT012 BKN020 
     BECMG 1619/1621 29012KT 9999 NSW FEW020 BKN220
       
ETHC 170020Z 24002KT 9999 BKN016 13/12 Q1016 WHT
TAF AMD ETHC 161457Z 1614/1623 28008KT 9999 NSW BKN018 
     TEMPO 1614/1617 26010KT 7000 -DZ BKN012 CANCEL 1520
       
EDLW 170050Z AUTO 11002KT 9999 // SCT024/// 14/12 Q1016
TAF EDLW 161700Z 1618/1718 VRB03KT 9999 SCT030
       
EDDC 170050Z 29006KT 260V320 9999 BKN012 13/12 Q1016
TAF EDDC 162300Z 1700/1724 29005KT 9999 SCT035 
     PROB30 
     TEMPO 1702/1708 BKN013
       
EDDL 170050Z 36001KT CAVOK 10/09 Q1017 NOSIG
TAF EDDL 162300Z 1700/1806 VRB03KT 9999 FEW030
       
EDDE 170050Z 25004KT 9999 FEW019 12/11 Q1017
TAF EDDE 162300Z 1700/1724 28004KT 9999 BKN020 
     PROB30 
     TEMPO 1700/1708 BKN013
       
ETHS 170020Z 33006KT 9999 BKN021 13/10 Q1016 WHT
TAF AMD ETHS 161448Z 1614/1623 30012KT 9999 NSW SCT020 BKN030 
     TEMPO 1614/1623 29010G20KT 8000 NSW BKN015 BKN025 CANCEL 1500
       
EDFH 170020Z VRB02KT CAVOK 11/09 Q1017
TAF EDFH 162300Z 1700/1724 VRB03KT CAVOK 
     BECMG 1710/1713 36006KT 
     BECMG 1718/1721 06005KT
       
EDDF 170050Z 02006KT CAVOK 15/11 Q1016 NOSIG
TAF EDDF 162300Z 1700/1806 04004KT CAVOK 
     BECMG 1710/1713 34006KT 
     BECMG 1718/1721 04004KT
       
EDNY 170050Z AUTO VRB02KT 9999 // NCD 14/11 Q1016
TAF EDNY 162300Z 1700/1724 VRB02KT CAVOK 
     BECMG 1709/1711 24005KT 
     BECMG 1716/1718 04003KT
       
ETHF 170020Z 35001KT 9999 BKN018 14/11 Q1017 WHT
TAF AMD ETHF 161423Z 1614/1623 34006KT 9999 NSW BKN025 CANCEL 1500
       
ETNG 170050Z 09001KT CAVOK 10/09 Q1017
TAF ETNG 162300Z 1700/1715 VRB03KT 9999 SCT030 
     BECMG 1708/1710 08006KT
       
ETIC 170056Z AUTO 00000KT 9999 CLR 10/10 A3001 RMK AO2 SLP157 T01040096 $
TAF ETIC 162201Z 1622/1804 VRB06KT 9999 SCT040 QNH2993INS 
     TEMPO 1703/1706 8000 BR 
     BECMG 1712/1713 35009KT 9999 SCT050 QNH2989INS 
     BECMG 1722/1723 VRB06KT 9999 SCT040 QNH2992INS TX25/1716Z TN08/1704Z
       
EDDH 170050Z 30008KT 9999 BKN017 13/10 Q1016 NOSIG
TAF EDDH 162300Z 1700/1806 30006KT 9999 BKN015 
     BECMG 1700/1703 BKN012 
     PROB30 
     TEMPO 1701/1706 4000 BR BKN007 
     BECMG 1706/1708 SCT025 
     BECMG 1717/1720 VRB03KT
       
EDHI 170050Z AUTO 29011KT 9999 // OVC019/// 14/10 Q1016
TAF EDHI 161700Z 1618/1621 29011KT 9999 SCT025 
     BECMG 1618/1620 29004KT
       
EDDV 170050Z 28003KT 9999 SCT012 BKN028 15/13 Q1016
TAF EDDV 162300Z 1700/1724 30004KT 9999 BKN030 
     TEMPO 1700/1708 BKN012 
     PROB30 
     TEMPO 1701/1706 4000 BR BKN007
       
TAF EDQM 161700Z 1618/1703 35007KT CAVOK 
     BECMG 1619/1621 VRB03KT
       
ETIH 170056Z AUTO 34003KT 9999 CLR 12/11 A3002 RMK AO2 SLP158 T01160114
ETNH 170020Z 30006KT 9999 BKN012 13/11 Q1015 GRN
TAF AMD ETNH 170100Z 1701/1711 28012KT 9999 NSW FEW006 BKN012 
     TEMPO 1701/1706 30005KT 5000 BR BKN006 
     BECMG 1706/1708 28007KT 8000 NSW SCT015 BKN030 BY ETGL
       
ETSH 170020Z 26004KT 9999 FEW290 12/11 Q1015 BLU+
TAF ETSH 161322Z 1614/1623 27012KT 9999 NSW BKN035
       
ETSI 170020Z AUTO 20001KT //// // ////// 12/09 Q1016 ///
TAF ETSI 161347Z 1614/1623 29008G18KT 9999 NSW FEW050 
     BECMG 1619/1620 33005KT 9999 NSW SKC
       
EDSB 170050Z AUTO 08002KT 9999 // NCD 14/12 Q1015
TAF EDSB 161700Z 1618/1718 01007KT CAVOK
       
EDVK 162020Z 31004KT 9999 OVC023 14/12 Q1018
TAF EDVK 162000Z 1621/1703 VRB03KT 9999 BKN020 
     PROB30 
     TEMPO 1621/1703 4000 BR BKN010
       
TAF EDHK 161400Z 1615/1618 28012KT 9999 FEW035
       
EDDK 170050Z 11003KT 020V140 CAVOK 11/10 Q1017 NOSIG
TAF EDDK 162300Z 1700/1806 VRB03KT CAVOK
       
ETNL 170020Z 29010KT 9999 BKN008 13/12 Q1014 GRN
TAF ETNL 162210Z 1623/1711 32012KT 9999 NSW SCT035 
     BECMG 1700/1702 29007KT 5000 BR FEW040 
     TEMPO 1602/1605 28004KT 1200 BCFG SCT002 BY ETGL
       
EDTL 162120Z 10003KT CAVOK 19/13 Q1015
TAF EDTL 161700Z 1618/1624 01007KT CAVOK
       
ETHL 170020Z 16002KT 9999 BKN280 13/10 Q1017 BLU+
TAF AMD ETHL 161414Z 1614/1623 26012KT 9999 NSW SCT050 CANCEL 1500
       
ETSL 170020Z 19003KT 9999 FEW050 BKN290 12/10 Q1017 BLU+
TAF ETSL 161349Z 1614/1623 27008KT 9999 NSW FEW050 CANCEL 1630 BY ETGL
       
EDDP 170050Z 26007KT 9999 FEW033 12/11 Q1016 NOSIG
TAF EDDP 162300Z 1700/1724 31005KT 9999 FEW035 
     PROB30 
     TEMPO 1703/1708 BKN013
       
TAF EDHL 161700Z 1618/1621 28010KT 9999 SCT035 
     BECMG 1618/1620 28004KT
       
EDFM 162020Z 34003KT CAVOK 21/11 Q1016
TAF EDFM 161700Z 1618/1621 36005KT CAVOK 
     BECMG 1618/1620 08003KT
       
EDLN 170050Z AUTO 32002KT 3600 // NCD 10/09 Q1017
TAF EDLN 161700Z 1618/1703 VRB03KT CAVOK
       
EDDM 170050Z 28001KT CAVOK 11/10 Q1016 NOSIG
TAF EDDM 162300Z 1700/1806 VRB02KT CAVOK 
     BECMG 1709/1712 31005KT 
     BECMG 1717/1719 VRB02KT
       
EDDG 170050Z VRB02KT 9999 BKN018 15/12 Q1017 NOSIG
TAF EDDG 162300Z 1700/1724 VRB03KT 9999 BKN020
       
ETSN 170020Z 00000KT 9999 BKN290 12/10 Q1016 BLU+
TAF ETSN 162210Z 1623/1708 VRB03KT 9999 NSW FEW050 BY ETGL
       
ETHN 170020Z 14001KT 9999 BKN260 13/10 Q1016 BLU+
TAF AMD ETHN 161438Z 1614/1623 33006KT 9999 NSW FEW025 CANCEL 1500
       
ETMN 170020Z 33006KT 9999 BKN017 14/10 Q1016 WHT
TAF AMD ETMN 161839Z 1617/1702 31008KT 9999 NSW BKN017 
     BECMG 1621/1623 30006KT 5000 BR SCT018 
     PROB30 1623/1702 31004KT 4000 BR SCT005 SCT050 CANCEL
       
ETNN 170020Z VRB01KT 9999 SCT340 11/10 Q1017 BLU+
TAF AMD ETNN 161501Z 1614/1623 32005KT 9999 NSW SCT030 CANCEL BY ETGL
       
EDDN 170050Z 06001KT CAVOK 12/11 Q1016
TAF EDDN 162300Z 1700/1724 VRB02KT CAVOK 
     BECMG 1709/1711 31005KT 
     BECMG 1717/1719 VRB02KT
       
EDMO 170050Z AUTO 16003KT 9999 // FEW059/// 11/10 Q1017
TAF EDMO 161700Z 1618/1703 30006KT CAVOK 
     BECMG 1618/1619 VRB02KT
       
EDLP 170050Z 00000KT 9999 OVC021 14/11 Q1017
TAF EDLP 162300Z 1700/1724 VRB03KT 9999 BKN020
       
ETAR 170056Z AUTO 09003KT 9999 CLR 10/10 A3001 RMK AO2 SLP162 T00980095
TAF ETAR 161809Z 1618/1724 VRB06KT 9999 SKC QNH2999INS 
     BECMG 1701/1702 VRB06KT 9999 FEW030 QNH3003INS 
     BECMG 1707/1708 VRB06KT 9999 SKC QNH3000INS TX26/1716Z TN08/1703Z
       
EDDR 170050Z 34003KT 300V040 CAVOK 13/10 Q1016
TAF EDDR 162300Z 1700/1724 03004KT CAVOK 
     BECMG 1709/1712 30005KT 
     BECMG 1718/1721 VRB03KT
       
ETNS 170020Z AUTO 30006KT 6000 // ////// 13/11 Q1015 ///
TAF ETNS 161315Z 1614/1623 30010G20KT 9999 NSW SCT020 
     TEMPO 1614/1623 27010G20KT 9999 NSW BKN015 BY ETGL
       
EDDB 170050Z 30007KT 9999 SCT037 14/11 Q1014 NOSIG
TAF EDDB 162300Z 1700/1724 28007KT CAVOK 
     PROB30 
     TEMPO 1703/1708 BKN013 
     BECMG 1717/1719 36004KT
       
EDTY 161920Z 30002KT CAVOK 19/08 Q1016
TAF EDTY 161700Z 1618/1703 30005KT CAVOK 
     BECMG 1618/1619 VRB02KT
       
TAF EDGS 161700Z 1618/1703 VRB03KT CAVOK
       
ETAD 170056Z AUTO 00000KT 9999 HZ CLR 11/09 A3003 RMK AO2 VIS 1800 RWY23 SLP154 T01130089
TAF ETAD 162000Z 1620/1802 07006KT 9999 FEW040 QNH3004INS 
     BECMG 1701/1702 05006KT 9999 FEW010 SCT030 QNH3002INS 
     TEMPO 1702/1705 VRB04KT 5000 BR BKN010 
     BECMG 1705/1706 VRB04KT 9999 FEW010 SCT040 QNH3000INS 
     BECMG 1709/1710 05006KT 9999 FEW040 QNH2991INS TX24/1715Z TN10/1704Z LAST
NO AMDS AFT 1620 NEXT 1704
       
EDDS 170050Z 31001KT CAVOK 14/10 Q1016
TAF EDDS 162300Z 1700/1724 VRB03KT CAVOK 
     BECMG 1710/1713 34006KT 
     BECMG 1718/1721 VRB03KT
       
EDDT 170050Z 28006KT CAVOK 13/11 Q1014
TAF EDDT 162300Z 1700/1724 30006KT CAVOK 
     PROB30 
     TEMPO 1703/1708 BKN013
       
TAF EDXW 161700Z 1618/1621 30015KT 9999 BKN015 
     PROB30 
     TEMPO 1618/1621 BKN012
       
ETOU 170056Z AUTO 00000KT 9999 CLR 15/11 A3002 RMK AO2 SLP164 T01470113
TAF ETOU 161901Z 1619/1801 36009KT 9999 SKC QNH3000INS 
     BECMG 1701/1702 VRB06KT 9999 SCT020 QNH2993INS TX26/1716Z TN10/1704Z
       
ETNT 170020Z 33004KT 9999 BKN016 14/11 Q1017 WHT
TAF ETNT 162210Z 1623/1708 29008KT 9000 NSW FEW010 BKN015 
     TEMPO 1623/1708 30012KT 6000 NSW BKN008 BY ETGL
       
ETNW 170020Z 30006KT 9999 BKN010 15/13 Q1016 GRN
TAF ETNW 162200Z 1623/1723 28008KT 9999 NSW SCT015 BKN025 
     TEMPO 1623/1701 31005KT 8000 NSW FEW010 BKN015 
     TEMPO 1701/1707 30003KT 4000 BR BKN008 
     BECMG 1709/1711 31005KT 9999 NSW SCT030 BY ETGL